Time;durP1;ratioP1;P1;durP2;ratioP2;P2;SDS_P1;SDS_P2;PMS_P1;PMS_P2;Temp;Humidity;BMP_temperature;BMP_pressure;BME280_temperature;BME280_humidity;BME280_pressure;Samples;Min_cycle;Max_cycle;Signal;HPM_P1;HPM_P2
2023/09/19 00:00:44;;;;;;;6.37;2.40;;;;;;;19.93;52.68;99376.25;5076148;28;20153;-85
2023/09/19 00:03:11;;;;;;;7.87;2.47;;;;;;;19.84;53.08;99373.53;5076422;28;20177;-85
2023/09/19 00:05:38;;;;;;;4.47;1.93;;;;;;;19.75;53.63;99372.53;5075736;28;20177;-85
2023/09/19 00:08:05;;;;;;;4.73;2.27;;;;;;;19.75;53.69;99369.88;5076227;28;20205;-85
2023/09/19 00:10:34;;;;;;;6.03;2.40;;;;;;;19.68;54.45;99371.38;5058507;28;20188;-85
2023/09/19 00:13:07;;;;;;;4.83;2.37;;;;;;;19.62;54.65;99371.91;5075660;28;20270;-85
2023/09/19 00:15:38;;;;;;;6.40;2.77;;;;;;;19.56;55.10;99375.09;5076574;28;20169;-85
2023/09/19 00:18:08;;;;;;;8.37;2.67;;;;;;;19.54;55.48;99377.88;5058075;28;20185;-85
2023/09/19 00:20:38;;;;;;;7.27;2.60;;;;;;;19.54;55.44;99375.22;5058297;28;20246;-85
2023/09/19 00:23:05;;;;;;;6.50;2.93;;;;;;;19.53;55.45;99365.56;5058138;28;20185;-85
2023/09/19 00:25:35;;;;;;;5.07;2.60;;;;;;;19.52;55.67;99360.38;5075581;28;20221;-85
2023/09/19 00:28:02;;;;;;;3.93;2.27;;;;;;;19.52;55.65;99360.38;5075732;28;20700;-85
2023/09/19 00:30:28;;;;;;;7.40;2.80;;;;;;;19.51;56.07;99364.00;5075730;28;20173;-85
2023/09/19 00:32:54;;;;;;;8.77;2.60;;;;;;;19.51;56.13;99362.19;5075526;28;20199;-85
2023/09/19 00:35:25;;;;;;;6.07;2.70;;;;;;;19.55;56.27;99360.09;5075629;28;20169;-85
2023/09/19 00:37:52;;;;;;;4.97;2.93;;;;;;;19.53;56.46;99368.22;5056978;28;20197;-85
2023/09/19 00:40:18;;;;;;;8.10;3.03;;;;;;;19.51;56.43;99364.00;5055471;28;20212;-85
2023/09/19 00:42:46;;;;;;;7.60;3.20;;;;;;;19.37;56.96;99364.28;5073459;28;20212;-85
2023/09/19 00:45:14;;;;;;;7.27;2.40;;;;;;;19.31;56.73;99357.69;5058387;28;20209;-85
2023/09/19 00:47:44;;;;;;;7.70;3.07;;;;;;;19.29;56.47;99359.63;5075203;28;20231;-85
2023/09/19 00:50:14;;;;;;;6.90;2.97;;;;;;;19.28;56.34;99362.44;5075362;28;20528;-85
2023/09/19 00:52:42;;;;;;;5.30;2.50;;;;;;;19.23;56.42;99354.00;5075807;28;20181;-85
2023/09/19 00:55:09;;;;;;;8.00;3.00;;;;;;;19.18;56.56;99366.84;5059657;28;20186;-85
2023/09/19 00:57:36;;;;;;;5.13;2.80;;;;;;;19.15;56.17;99364.44;5075334;28;20238;-85
2023/09/19 01:00:05;;;;;;;5.97;3.03;;;;;;;19.15;55.85;99364.44;5057355;28;20188;-85
2023/09/19 01:02:31;;;;;;;6.30;2.40;;;;;;;19.12;55.71;99359.38;5057418;28;20245;-85
2023/09/19 01:04:58;;;;;;;7.90;2.77;;;;;;;19.06;55.96;99373.16;5074794;28;20192;-85
2023/09/19 01:07:23;;;;;;;6.63;2.63;;;;;;;19.01;55.68;99366.44;5074919;28;20173;-85
2023/09/19 01:09:50;;;;;;;6.60;3.17;;;;;;;18.97;55.74;99372.97;5074809;28;20536;-85
2023/09/19 01:12:25;;;;;;;5.17;2.63;;;;;;;18.96;55.82;99370.44;5074872;28;20207;-85
2023/09/19 01:15:03;;;;;;;6.83;3.00;;;;;;;18.94;56.02;99365.28;5075207;28;20166;-85
2023/09/19 01:17:44;;;;;;;6.30;2.90;;;;;;;18.91;56.24;99359.34;5057240;28;20283;-85
2023/09/19 01:20:33;;;;;;;6.70;3.20;;;;;;;18.92;56.16;99358.38;5074718;28;20555;-85
2023/09/19 01:23:30;;;;;;;9.60;3.17;;;;;;;18.86;56.29;99358.91;5074751;28;20157;-85
2023/09/19 01:26:30;;;;;;;6.70;3.03;;;;;;;18.86;56.55;99359.75;5014376;28;20203;-85
2023/09/19 01:29:32;;;;;;;5.63;2.80;;;;;;;18.77;56.90;99357.84;5054445;28;20665;-85
2023/09/19 01:32:03;;;;;;;6.37;3.50;;;;;;;18.67;57.11;99362.22;5071246;28;20225;-85
2023/09/19 01:34:59;;;;;;;6.73;3.47;;;;;;;18.67;57.27;99354.25;5056864;28;20169;-85
2023/09/19 01:37:25;;;;;;;6.60;3.53;;;;;;;18.65;57.69;99353.53;5063639;28;20212;-85
2023/09/19 01:40:11;;;;;;;7.17;3.67;;;;;;;18.59;58.32;99354.03;5074368;28;20208;-85
2023/09/19 01:42:57;;;;;;;8.73;3.50;;;;;;;18.58;58.36;99359.50;5074597;28;20184;-85
2023/09/19 01:45:52;;;;;;;5.17;2.93;;;;;;;18.54;58.63;99353.56;5056292;28;20192;-85
2023/09/19 01:48:55;;;;;;;6.03;2.80;;;;;;;18.54;58.51;99356.22;5074296;28;20248;-85
2023/09/19 01:51:49;;;;;;;5.47;3.13;;;;;;;18.52;58.64;99354.66;5074182;28;20187;-85
2023/09/19 01:54:22;;;;;;;7.87;3.10;;;;;;;18.53;58.44;99354.53;5073693;28;20602;-85
2023/09/19 01:57:15;;;;;;;5.57;2.80;;;;;;;18.50;58.16;99349.47;5074350;28;20656;-85
2023/09/19 01:59:54;;;;;;;5.73;2.87;;;;;;;18.51;58.06;99340.53;5073910;28;20266;-85
2023/09/19 02:02:22;;;;;;;7.60;3.00;;;;;;;18.54;57.90;99340.31;5074554;28;20615;-85
2023/09/19 02:04:50;;;;;;;7.43;2.70;;;;;;;18.48;58.06;99340.78;5056139;28;20270;-85
2023/09/19 02:07:17;;;;;;;13.73;3.73;;;;;;;18.46;57.96;99337.41;5074349;28;20183;-85
2023/09/19 02:09:43;;;;;;;6.07;2.77;;;;;;;18.43;57.93;99343.81;5074085;28;20659;-85
2023/09/19 02:12:09;;;;;;;4.17;2.30;;;;;;;18.41;57.99;99345.75;5055930;28;20181;-85
2023/09/19 02:14:36;;;;;;;4.83;2.50;;;;;;;18.40;57.91;99348.50;5056101;28;20237;-85
2023/09/19 02:17:06;;;;;;;5.73;2.30;;;;;;;18.37;57.89;99348.75;5056073;28;20195;-85
2023/09/19 02:19:33;;;;;;;5.63;2.63;;;;;;;18.31;57.99;99339.50;5074203;28;20194;-85
2023/09/19 02:22:03;;;;;;;8.00;3.17;;;;;;;18.35;57.96;99345.38;5055988;28;20182;-85
2023/09/19 02:24:29;;;;;;;4.07;1.93;;;;;;;18.38;57.96;99351.28;5055925;28;20174;-85
2023/09/19 02:26:59;;;;;;;4.83;2.33;;;;;;;18.22;58.39;99345.53;5073388;28;20182;-85
2023/09/19 02:29:26;;;;;;;5.33;2.40;;;;;;;18.13;58.55;99354.22;5074100;28;20662;-85
2023/09/19 02:31:55;;;;;;;3.70;2.20;;;;;;;18.14;58.60;99347.09;5073300;28;20633;-85
2023/09/19 02:34:23;;;;;;;4.80;2.07;;;;;;;18.15;58.30;99346.16;5073395;28;20181;-85
2023/09/19 02:36:49;;;;;;;5.80;1.87;;;;;;;18.09;58.57;99334.22;5073221;28;20191;-85
2023/09/19 02:39:16;;;;;;;4.37;2.00;;;;;;;18.04;58.75;99335.53;5073300;28;20606;-84
2023/09/19 02:41:43;;;;;;;5.93;2.17;;;;;;;18.02;58.60;99337.50;5073397;28;20575;-85
2023/09/19 02:44:09;;;;;;;6.87;2.20;;;;;;;18.04;58.49;99346.16;5055462;28;20183;-85
2023/09/19 02:46:36;;;;;;;6.37;2.60;;;;;;;18.06;58.53;99333.59;5072950;28;20190;-85
2023/09/19 02:49:06;;;;;;;5.83;2.07;;;;;;;18.03;58.36;99339.19;5073413;28;20205;-85
2023/09/19 02:51:34;;;;;;;4.23;2.30;;;;;;;18.02;58.29;99332.19;5072934;28;20193;-85
2023/09/19 02:54:02;;;;;;;4.97;2.30;;;;;;;18.03;57.83;99328.56;5055853;28;20169;-85
2023/09/19 02:56:30;;;;;;;5.40;2.43;;;;;;;17.99;58.31;99335.06;5055347;28;20182;-85
2023/09/19 02:58:57;;;;;;;5.03;2.10;;;;;;;17.91;58.42;99332.19;5073293;28;20634;-85
2023/09/19 03:01:23;;;;;;;3.87;1.83;;;;;;;17.87;58.71;99333.41;5073565;28;20184;-85
2023/09/19 03:03:50;;;;;;;4.67;1.93;;;;;;;17.80;58.87;99325.94;5073055;28;20545;-85
2023/09/19 03:06:15;;;;;;;3.60;2.10;;;;;;;17.77;59.23;99327.97;5072053;28;20177;-85
2023/09/19 03:08:43;;;;;;;4.27;2.03;;;;;;;17.75;59.58;99327.25;5072963;28;20208;-85
2023/09/19 03:11:11;;;;;;;4.80;2.20;;;;;;;17.76;59.74;99321.84;5073013;28;20177;-85
2023/09/19 03:13:38;;;;;;;3.80;2.00;;;;;;;17.79;59.83;99324.22;5072967;28;20259;-85
2023/09/19 03:16:07;;;;;;;6.17;2.57;;;;;;;17.82;59.81;99325.78;5055258;28;20238;-85
2023/09/19 03:18:37;;;;;;;4.73;2.00;;;;;;;17.77;60.25;99323.50;5072954;28;20247;-85
2023/09/19 03:21:04;;;;;;;8.83;2.97;;;;;;;17.72;60.53;99325.69;5073189;28;20177;-85
2023/09/19 03:23:30;;;;;;;6.83;3.00;;;;;;;17.72;60.83;99314.22;5072729;28;20630;-85
2023/09/19 03:25:56;;;;;;;5.70;3.00;;;;;;;17.74;60.72;99317.63;5072760;28;20638;-85
2023/09/19 03:28:22;;;;;;;5.77;3.07;;;;;;;17.75;60.87;99312.19;5072771;28;20200;-85
2023/09/19 03:31:01;;;;;;;5.00;2.57;;;;;;;17.72;60.93;99325.69;5072511;28;20195;-85
2023/09/19 03:33:31;;;;;;;5.03;2.70;;;;;;;17.67;61.26;99325.22;5055169;28;20510;-85
2023/09/19 03:35:59;;;;;;;5.87;3.13;;;;;;;17.67;61.18;99319.91;5072744;28;20256;-85
2023/09/19 03:38:25;;;;;;;5.20;2.57;;;;;;;17.68;61.15;99326.91;5072696;28;20637;-85
2023/09/19 03:40:52;;;;;;;8.13;3.20;;;;;;;17.67;61.08;99327.84;5072709;28;20173;-85
2023/09/19 03:43:17;;;;;;;6.87;2.30;;;;;;;17.63;61.37;99325.56;5072631;28;20177;-85
2023/09/19 03:45:44;;;;;;;4.40;2.07;;;;;;;17.61;61.44;99333.63;5072676;28;20230;-85
2023/09/19 03:48:11;;;;;;;6.80;3.10;;;;;;;17.61;61.55;99324.84;5072505;28;20212;-85
2023/09/19 03:50:37;;;;;;;4.53;2.33;;;;;;;17.61;61.34;99328.34;5054899;28;20242;-85
2023/09/19 03:53:06;;;;;;;4.23;2.13;;;;;;;17.64;61.34;99332.53;5073158;28;20185;-85
2023/09/19 03:55:36;;;;;;;5.60;2.30;;;;;;;17.69;61.11;99331.22;5054737;28;20180;-84
2023/09/19 03:58:03;;;;;;;6.37;2.73;;;;;;;17.61;61.64;99325.69;5054912;28;20608;-84
2023/09/19 04:00:29;;;;;;;4.40;2.20;;;;;;;17.60;62.03;99331.13;5069573;28;20272;-84
2023/09/19 04:02:56;;;;;;;3.60;1.77;;;;;;;17.62;61.73;99329.19;5063351;28;20213;-84
2023/09/19 04:05:23;;;;;;;5.10;2.57;;;;;;;17.62;61.74;99327.38;5033686;28;20205;-84
2023/09/19 04:07:50;;;;;;;5.87;2.80;;;;;;;17.64;61.95;99338.69;5054195;28;20190;-85
2023/09/19 04:10:17;;;;;;;4.13;2.37;;;;;;;17.61;61.96;99338.13;5071964;28;20592;-85
2023/09/19 04:12:55;;;;;;;3.80;2.20;;;;;;;17.62;62.13;99334.47;5071771;28;20181;-85
2023/09/19 04:15:23;;;;;;;4.97;2.67;;;;;;;17.64;62.26;99344.00;5072196;28;20177;-85
2023/09/19 04:17:51;;;;;;;5.27;2.40;;;;;;;17.66;62.35;99355.31;5057160;28;20512;-85
2023/09/19 04:20:23;;;;;;;6.33;2.77;;;;;;;17.71;62.19;99350.50;5075666;28;20185;-85
2023/09/19 04:22:49;;;;;;;4.67;2.47;;;;;;;17.89;61.96;99358.84;5079419;28;20180;-85
2023/09/19 04:25:15;;;;;;;7.27;2.90;;;;;;;17.88;62.68;99359.78;5087995;28;20181;-85
2023/09/19 04:27:41;;;;;;;5.87;2.43;;;;;;;17.96;63.27;99364.50;5055880;28;20178;-85
2023/09/19 04:30:11;;;;;;;4.97;2.43;;;;;;;17.99;63.91;99356.28;5055764;28;20225;-85
2023/09/19 04:32:42;;;;;;;5.67;3.13;;;;;;;18.12;64.66;99359.66;5037896;28;20276;-85
2023/09/19 04:35:10;;;;;;;5.33;2.70;;;;;;;18.21;65.15;99361.59;5038105;28;20174;-85
2023/09/19 04:37:39;;;;;;;6.27;2.90;;;;;;;18.21;65.14;99356.28;5062002;28;20191;-85
2023/09/19 04:40:17;;;;;;;5.60;2.77;;;;;;;18.26;65.28;99356.75;5057927;28;20614;-85
2023/09/19 04:42:44;;;;;;;5.80;2.37;;;;;;;18.27;65.50;99356.63;5075674;28;20157;-85
2023/09/19 04:45:10;;;;;;;6.23;2.23;;;;;;;18.39;65.95;99357.44;5075798;28;20207;-85
2023/09/19 04:47:38;;;;;;;5.87;2.73;;;;;;;18.46;66.27;99350.66;5075482;28;20226;-85
2023/09/19 04:50:06;;;;;;;6.20;2.50;;;;;;;18.53;66.52;99348.38;5057707;28;20231;-85
2023/09/19 04:52:32;;;;;;;7.27;3.00;;;;;;;18.52;66.72;99344.91;5057977;28;20224;-85
2023/09/19 04:54:57;;;;;;;4.67;2.60;;;;;;;18.62;66.59;99348.47;5075912;28;20202;-85
2023/09/19 04:57:25;;;;;;;4.93;2.53;;;;;;;18.55;67.27;99357.94;5075291;28;20177;-85
2023/09/19 04:59:50;;;;;;;7.63;2.53;;;;;;;18.74;66.85;99355.44;5075191;28;20246;-86
2023/09/19 05:02:17;;;;;;;5.27;2.40;;;;;;;18.86;66.42;99351.78;5057628;28;20268;-85
2023/09/19 05:04:44;;;;;;;6.63;3.33;;;;;;;18.84;66.47;99347.56;5057577;28;20184;-85
2023/09/19 05:07:10;;;;;;;7.40;3.20;;;;;;;18.90;66.28;99350.53;5057365;28;20178;-85
2023/09/19 05:09:37;;;;;;;4.90;2.37;;;;;;;18.96;66.43;99352.69;5075001;28;20224;-85
2023/09/19 05:12:03;;;;;;;7.87;2.80;;;;;;;19.11;65.77;99347.91;5075108;28;20345;-86
2023/09/19 05:14:28;;;;;;;5.53;2.40;;;;;;;19.34;65.37;99348.63;5074822;28;20669;-85
2023/09/19 05:16:55;;;;;;;5.13;2.40;;;;;;;19.47;65.06;99342.16;5058419;28;20277;-86
2023/09/19 05:19:21;;;;;;;5.83;2.40;;;;;;;19.64;64.58;99346.03;5057134;28;20173;-86
2023/09/19 05:21:47;;;;;;;3.83;2.00;;;;;;;19.87;63.78;99344.84;5074705;28;20194;-85
2023/09/19 05:24:14;;;;;;;3.37;1.77;;;;;;;20.04;63.40;99341.56;5074844;28;20169;-86
2023/09/19 05:26:41;;;;;;;6.03;2.60;;;;;;;20.34;62.08;99346.00;5074704;28;20180;-86
2023/09/19 05:29:07;;;;;;;4.97;2.43;;;;;;;20.51;61.87;99349.84;5056138;28;20211;-86
2023/09/19 05:31:36;;;;;;;5.17;2.40;;;;;;;20.76;60.60;99344.81;5074473;28;20223;-86
2023/09/19 05:34:03;;;;;;;5.63;2.73;;;;;;;20.87;60.28;99340.31;5074591;28;20234;-86
2023/09/19 05:36:30;;;;;;;5.70;2.50;;;;;;;21.00;59.46;99352.38;5074549;28;20256;-86
2023/09/19 05:38:56;;;;;;;7.17;2.80;;;;;;;21.09;59.25;99342.75;5073912;28;20607;-86
2023/09/19 05:41:23;;;;;;;3.87;2.47;;;;;;;21.20;59.27;99337.25;5069384;28;20237;-86
2023/09/19 05:43:50;;;;;;;5.13;2.40;;;;;;;21.40;58.38;99338.91;5086766;28;20195;-87
2023/09/19 05:46:17;;;;;;;6.90;2.40;;;;;;;21.48;58.18;99336.34;5074025;28;20185;-87
2023/09/19 05:48:43;;;;;;;5.70;2.87;;;;;;;21.65;57.28;99332.91;5057730;28;20197;-86
2023/09/19 05:51:09;;;;;;;8.73;2.93;;;;;;;21.96;56.69;99346.88;5074094;28;20188;-87
2023/09/19 05:53:35;;;;;;;10.50;2.83;;;;;;;22.21;55.69;99340.88;5073953;28;20562;-87
2023/09/19 05:56:00;;;;;;;4.37;2.00;;;;;;;22.31;55.27;99346.97;5073579;28;20265;-86
2023/09/19 05:58:26;;;;;;;4.50;2.03;;;;;;;22.63;54.98;99341.19;5056033;28;20598;-86
2023/09/19 06:00:52;;;;;;;5.73;2.13;;;;;;;23.15;52.82;99331.47;5056219;28;20169;-86
2023/09/19 06:03:18;;;;;;;6.27;2.43;;;;;;;23.78;51.18;99340.09;5055788;28;20218;-87
2023/09/19 06:05:46;;;;;;;3.53;1.90;;;;;;;24.54;48.45;99340.09;5079884;28;20279;-86
2023/09/19 06:08:11;;;;;;;4.83;2.43;;;;;;;25.00;46.93;99324.25;5062446;28;20200;-86
2023/09/19 06:10:38;;;;;;;3.97;2.00;;;;;;;25.56;45.76;99319.88;5056132;28;20185;-86
2023/09/19 06:13:04;;;;;;;2.97;1.67;;;;;;;26.34;44.88;99322.63;5073652;28;20177;-86
2023/09/19 06:15:32;;;;;;;3.03;1.53;;;;;;;26.94;42.10;99317.41;5056244;28;20651;-86
2023/09/19 06:17:59;;;;;;;5.87;2.40;;;;;;;27.79;41.20;99319.63;5073627;28;20173;-87
2023/09/19 06:20:25;;;;;;;2.97;1.70;;;;;;;28.62;38.67;99319.28;5055753;28;20189;-87
2023/09/19 06:22:51;;;;;;;4.00;2.13;;;;;;;29.41;38.63;99310.06;5055838;28;20190;-87
2023/09/19 06:25:20;;;;;;;3.73;1.87;;;;;;;29.80;36.59;99323.88;5073303;28;20181;-87
2023/09/19 06:27:47;;;;;;;3.23;1.53;;;;;;;30.21;36.59;99317.66;5073373;28;20181;-86
2023/09/19 06:30:13;;;;;;;3.37;1.70;;;;;;;30.77;35.59;99310.13;5072609;28;20270;-87
2023/09/19 06:32:39;;;;;;;3.33;1.70;;;;;;;30.90;34.92;99319.13;5073077;28;20177;-87
2023/09/19 06:35:10;;;;;;;3.07;1.33;;;;;;;31.21;34.71;99309.59;5054976;28;20555;-87
2023/09/19 06:37:40;;;;;;;5.85;1.95;;;;;;;31.69;33.82;99326.44;5070490;28;20173;-87
2023/09/19 06:40:16;;;;;;;4.30;1.80;;;;;;;31.90;33.51;99324.31;5053182;28;20202;-87
2023/09/19 06:42:45;;;;;;;5.57;1.60;;;;;;;32.06;32.91;99320.34;5053517;28;20175;-88
2023/09/19 06:45:13;;;;;;;3.92;2.22;;;;;;;32.51;32.55;99322.03;5059989;28;20181;-89
2023/09/19 06:47:39;;;;;;;3.63;1.60;;;;;;;33.05;32.83;99313.38;5055648;28;20181;-89
2023/09/19 06:50:05;;;;;;;3.30;1.77;;;;;;;33.44;31.45;99309.50;5073045;28;20215;-88
2023/09/19 06:52:32;;;;;;;3.60;1.58;;;;;;;33.81;30.48;99315.84;5055344;28;20177;-90
2023/09/19 06:54:58;;;;;;;3.65;1.50;;;;;;;34.05;30.36;99309.53;5055594;28;20180;-89
2023/09/19 06:57:24;;;;;;;3.47;1.52;;;;;;;34.13;29.99;99317.41;5055196;28;20211;-88
2023/09/19 06:59:50;;;;;;;3.20;1.55;;;;;;;34.03;29.68;99311.66;5072655;28;20559;-88
2023/09/19 07:02:15;;;;;;;2.80;1.65;;;;;;;34.29;29.78;99302.34;5072884;28;20196;-88
2023/09/19 07:04:41;;;;;;;4.28;1.48;;;;;;;34.30;29.07;99306.75;5055677;28;20181;-89
2023/09/19 07:07:08;;;;;;;2.70;1.52;;;;;;;34.33;29.65;99298.94;5072979;28;20169;-89
2023/09/19 07:09:35;;;;;;;3.00;1.30;;;;;;;34.27;29.59;99308.03;5072643;28;20211;-89
2023/09/19 07:12:01;;;;;;;3.20;1.40;;;;;;;34.07;29.19;99302.00;5072836;28;20185;-89
2023/09/19 07:14:27;;;;;;;2.85;1.60;;;;;;;33.96;29.91;99302.75;5055263;28;20519;-88
2023/09/19 07:16:52;;;;;;;2.88;1.60;;;;;;;33.82;28.99;99310.22;5072896;28;20645;-89
2023/09/19 07:19:17;;;;;;;9.30;2.17;;;;;;;33.57;29.85;99300.44;5072722;28;20540;-88
2023/09/19 07:21:43;;;;;;;7.63;1.75;;;;;;;33.34;30.29;99296.44;5054992;28;20558;-88
2023/09/19 07:24:09;;;;;;;2.92;1.52;;;;;;;33.30;30.68;99288.94;5073009;28;20197;-88
2023/09/19 07:26:34;;;;;;;2.97;1.52;;;;;;;33.35;31.09;99289.94;5055356;28;20192;-89
2023/09/19 07:29:02;;;;;;;4.00;2.00;;;;;;;33.41;29.86;99293.66;5055214;28;20255;-88
2023/09/19 07:31:28;;;;;;;2.83;1.67;;;;;;;33.39;29.76;99285.72;5054586;28;20553;-88
2023/09/19 07:33:54;;;;;;;3.25;1.60;;;;;;;33.03;31.01;99296.44;5071401;28;20180;-89
2023/09/19 07:36:19;;;;;;;4.88;1.60;;;;;;;32.96;30.97;99286.69;5055353;28;20571;-88
2023/09/19 07:38:45;;;;;;;3.00;1.58;;;;;;;32.77;30.99;99283.06;5055143;28;20251;-88
2023/09/19 07:41:10;;;;;;;4.47;2.15;;;;;;;32.50;31.90;99278.81;5048914;28;20189;-88
2023/09/19 07:43:37;;;;;;;6.43;1.95;;;;;;;32.31;32.23;99279.78;5035239;28;20199;-88
2023/09/19 07:46:06;;;;;;;3.65;1.50;;;;;;;32.35;32.92;99273.69;5035264;28;20182;-89
2023/09/19 07:48:32;;;;;;;4.80;1.95;;;;;;;32.55;32.37;99271.72;5042398;28;20205;-88
2023/09/19 07:51:03;;;;;;;3.53;1.52;;;;;;;32.64;32.21;99270.41;5055370;28;20207;-88
2023/09/19 07:53:28;;;;;;;3.13;1.45;;;;;;;32.57;32.19;99266.09;5057972;28;20181;-88
2023/09/19 07:56:02;;;;;;;3.90;1.75;;;;;;;32.74;31.62;99259.06;5076269;28;20195;-89
2023/09/19 07:58:27;;;;;;;6.72;3.40;;;;;;;32.68;32.17;99260.78;5058779;28;20544;-88
2023/09/19 08:00:53;;;;;;;8.00;2.20;;;;;;;32.75;31.80;99258.88;5076209;28;20169;-89
2023/09/19 08:03:18;;;;;;;3.00;1.50;;;;;;;32.79;31.74;99259.22;5058552;28;20187;-88
2023/09/19 08:05:44;;;;;;;3.50;1.83;;;;;;;32.75;31.89;99255.31;5075559;28;20195;-89
2023/09/19 08:08:14;;;;;;;3.20;1.55;;;;;;;32.81;31.16;99257.97;5059096;28;20277;-89
2023/09/19 08:10:42;;;;;;;4.18;1.35;;;;;;;32.75;31.70;99249.88;5076047;28;20177;-89
2023/09/19 08:13:13;;;;;;;2.67;1.50;;;;;;;32.74;31.03;99256.34;5074871;28;20815;-89
2023/09/19 08:15:44;;;;;;;2.88;1.67;;;;;;;32.71;31.97;99251.34;5074363;28;20181;-88
2023/09/19 08:18:11;;;;;;;3.05;1.27;;;;;;;32.78;30.88;99257.59;5076299;28;20241;-88
2023/09/19 08:20:37;;;;;;;2.53;1.13;;;;;;;32.69;31.32;99254.31;5069888;28;20667;-90
2023/09/19 08:23:03;;;;;;;3.88;1.52;;;;;;;32.66;31.74;99253.91;5057655;28;20177;-88
2023/09/19 08:25:30;;;;;;;3.20;1.45;;;;;;;32.62;30.50;99241.84;5075813;28;20173;-88
2023/09/19 08:27:57;;;;;;;4.20;1.15;;;;;;;32.54;29.44;99245.66;5057974;28;20534;-88
2023/09/19 08:30:24;;;;;;;5.03;1.55;;;;;;;32.55;30.92;99246.44;5067106;28;20239;-88
2023/09/19 08:33:04;;;;;;;2.58;1.27;;;;;;;32.76;29.92;99241.50;5055672;28;20178;-88
2023/09/19 08:35:30;;;;;;;3.72;1.65;;;;;;;32.57;30.15;99238.94;5060379;28;20176;-88
2023/09/19 08:37:57;;;;;;;3.33;1.42;;;;;;;32.87;29.22;99229.09;5058181;28;20185;-88
2023/09/19 08:40:24;;;;;;;4.90;1.35;;;;;;;33.15;28.75;99224.06;5075561;28;20698;-88
2023/09/19 08:42:54;;;;;;;4.47;1.65;;;;;;;33.22;28.40;99232.16;5057414;28;20280;-88
2023/09/19 08:45:27;;;;;;;7.53;1.63;;;;;;;33.15;28.50;99229.50;5075383;28;20627;-88
2023/09/19 08:48:20;;;;;;;3.03;1.48;;;;;;;33.04;29.08;99216.66;5075405;28;20619;-87
2023/09/19 08:51:06;;;;;;;4.35;1.50;;;;;;;32.84;29.63;99213.25;5075096;28;20327;-88
2023/09/19 08:54:03;;;;;;;3.70;1.67;;;;;;;32.62;30.07;99220.13;5082611;28;20220;-87
2023/09/19 08:56:29;;;;;;;3.47;1.30;;;;;;;32.61;29.85;99213.00;5069690;28;20184;-88
2023/09/19 08:59:02;;;;;;;4.57;1.67;;;;;;;32.49;29.73;99214.75;5075112;28;20225;-88
2023/09/19 09:01:29;;;;;;;4.95;1.70;;;;;;;32.72;29.49;99204.16;5074962;28;20169;-88
2023/09/19 09:03:56;;;;;;;2.92;1.25;;;;;;;32.69;29.69;99201.88;5073845;28;20211;-87
2023/09/19 09:06:25;;;;;;;4.38;1.52;;;;;;;32.74;29.47;99202.88;5057536;28;20645;-88
2023/09/19 09:08:51;;;;;;;5.68;2.00;;;;;;;32.74;29.72;99202.88;5067400;28;20209;-87
2023/09/19 09:11:19;;;;;;;3.63;2.03;;;;;;;32.70;28.75;99198.13;5055171;28;20174;-87
2023/09/19 09:13:46;;;;;;;2.72;1.20;;;;;;;32.66;30.05;99196.88;5055400;28;20177;-88
2023/09/19 09:16:13;;;;;;;2.40;1.20;;;;;;;32.81;29.41;99198.22;5051929;28;20181;-88
2023/09/19 09:18:40;;;;;;;3.67;1.10;;;;;;;32.93;29.20;99190.19;5057091;28;20177;-87
2023/09/19 09:21:06;;;;;;;3.25;1.42;;;;;;;32.87;29.67;99188.38;5057445;28;20234;-89
2023/09/19 09:23:33;;;;;;;3.55;1.98;;;;;;;32.78;29.19;99187.00;5056762;28;20216;-87
2023/09/19 09:26:02;;;;;;;2.78;1.42;;;;;;;32.66;29.62;99180.59;5083728;28;20188;-87
2023/09/19 09:28:30;;;;;;;5.93;1.60;;;;;;;32.83;28.65;99179.00;5087260;28;20200;-88
2023/09/19 09:31:07;;;;;;;3.47;1.35;;;;;;;32.66;29.22;99173.28;5075188;28;20509;-88
2023/09/19 09:33:36;;;;;;;3.20;1.50;;;;;;;32.63;29.54;99172.91;5074259;28;20669;-87
2023/09/19 09:36:04;;;;;;;3.03;1.60;;;;;;;32.60;29.51;99168.75;5074190;28;20189;-88
2023/09/19 09:38:43;;;;;;;3.55;1.50;;;;;;;32.95;28.39;99177.22;5056742;28;20560;-88
2023/09/19 09:41:15;;;;;;;5.40;1.50;;;;;;;32.98;28.70;99171.34;5074462;28;20194;-88
2023/09/19 09:43:42;;;;;;;4.72;1.50;;;;;;;33.01;29.59;99170.06;5074269;28;20247;-88
2023/09/19 09:49:16;;;;;;;4.18;1.58;;;;;;;32.56;29.06;99161.28;5074125;28;20271;-87
2023/09/19 09:51:59;;;;;;;3.95;1.60;;;;;;;32.52;30.25;99143.75;5074445;28;20192;-88
2023/09/19 09:54:36;;;;;;;3.78;1.70;;;;;;;32.76;28.82;99156.50;5074540;28;20157;-87
2023/09/19 09:57:17;;;;;;;3.55;1.52;;;;;;;32.98;29.18;99149.63;5056237;28;20258;-87
2023/09/19 09:59:49;;;;;;;2.90;1.35;;;;;;;33.19;28.80;99142.94;5073850;28;20221;-87
2023/09/19 10:02:24;;;;;;;4.47;1.70;;;;;;;33.31;27.40;99141.13;5074590;28;20321;-89
2023/09/19 10:04:58;;;;;;;3.58;1.33;;;;;;;33.61;27.49;99149.41;5073839;28;20239;-88
2023/09/19 10:07:36;;;;;;;3.08;1.38;;;;;;;33.78;27.42;99143.09;5074314;28;20153;-88
2023/09/19 10:10:53;;;;;;;3.05;1.45;;;;;;;33.80;27.50;99132.00;5073842;28;20261;-88
2023/09/19 10:13:02;;;;;;;4.82;1.80;;;;;;;33.85;27.35;99123.97;5065268;28;20203;-88
2023/09/19 10:15:32;;;;;;;3.55;1.83;;;;;;;33.79;26.98;99127.63;5040923;28;20622;-88
2023/09/19 10:18:01;;;;;;;5.03;1.00;;;;;;;34.15;26.35;99119.38;5073484;28;20578;-88
2023/09/19 10:20:44;;;;;;;4.57;1.83;;;;;;;34.36;25.43;99118.00;5056380;28;20586;-89
2023/09/19 10:23:12;;;;;;;2.20;1.15;;;;;;;34.32;25.60;99116.81;5073667;28;20160;-87
2023/09/19 10:25:41;;;;;;;4.75;1.05;;;;;;;34.31;25.67;99106.97;5073554;28;20679;-87
2023/09/19 10:28:15;;;;;;;2.50;1.20;;;;;;;34.38;25.16;99108.53;5055953;28;20267;-88
2023/09/19 10:30:47;;;;;;;7.82;1.30;;;;;;;34.46;25.00;99110.91;5073616;28;20188;-88
2023/09/19 10:33:15;;;;;;;2.30;1.30;;;;;;;34.52;25.32;99107.25;5073715;28;20154;-87
2023/09/19 10:35:46;;;;;;;2.53;1.20;;;;;;;34.73;25.56;99107.78;5073104;28;20165;-88
2023/09/19 10:38:16;;;;;;;2.53;1.40;;;;;;;34.52;25.02;99099.09;5073520;28;20234;-88
2023/09/19 10:40:43;;;;;;;1.95;1.15;;;;;;;34.34;25.92;99091.03;5055518;28;20181;-87
2023/09/19 10:43:20;;;;;;;5.30;2.15;;;;;;;33.93;26.20;99089.13;5073247;28;20179;-89
2023/09/19 10:45:49;;;;;;;5.65;1.85;;;;;;;34.03;26.81;99087.72;5073415;28;20185;-88
2023/09/19 10:48:19;;;;;;;2.90;1.35;;;;;;;34.26;26.39;99088.66;5073249;28;20188;-88
2023/09/19 10:51:04;;;;;;;6.75;1.13;;;;;;;34.21;26.89;99077.63;5073208;28;20537;-87
2023/09/19 10:53:53;;;;;;;3.95;1.35;;;;;;;33.95;27.32;99075.28;5073382;28;20161;-87
2023/09/19 10:56:27;;;;;;;3.45;1.23;;;;;;;34.23;26.07;99071.94;5073227;28;20199;-88
2023/09/19 10:59:13;;;;;;;4.07;1.40;;;;;;;34.42;25.49;99065.34;5073518;28;20153;-88
2023/09/19 11:01:52;;;;;;;5.50;1.35;;;;;;;34.68;25.04;99061.34;5073208;28;20165;-87
2023/09/19 11:04:33;;;;;;;2.33;1.00;;;;;;;34.84;24.22;99072.38;5073110;28;20173;-88
2023/09/19 11:07:16;;;;;;;2.90;1.23;;;;;;;34.71;25.58;99063.59;5073502;28;20157;-88
2023/09/19 11:09:58;;;;;;;2.50;1.40;;;;;;;34.89;25.21;99060.75;5055759;28;20231;-88
2023/09/19 11:15:07;;;;;;;3.08;1.60;;;;;;;34.87;25.07;99058.28;5073988;28;20169;-87
2023/09/19 11:17:37;;;;;;;1.98;1.15;;;;;;;34.57;25.23;99054.84;5055461;28;20637;-87
2023/09/19 11:22:53;;;;;;;4.82;1.23;;;;;;;34.57;24.98;99039.34;5073349;28;20160;-88
2023/09/19 11:25:43;;;;;;;6.50;3.60;;;;;;;34.78;25.28;99037.06;5055584;28;20185;-88
2023/09/19 11:28:18;;;;;;;4.40;1.58;;;;;;;35.18;24.01;99040.72;5055935;28;20190;-87
2023/09/19 11:30:45;;;;;;;2.42;1.27;;;;;;;35.16;24.36;99034.69;5057567;28;20157;-87
2023/09/19 11:33:41;;;;;;;2.90;0.88;;;;;;;35.21;23.90;99025.78;5064938;28;20214;-86
2023/09/19 11:36:30;;;;;;;5.18;1.67;;;;;;;35.12;24.46;99023.41;5077169;28;20165;-87
2023/09/19 11:38:57;;;;;;;5.32;1.60;;;;;;;34.91;24.10;99020.47;5076388;28;20552;-88
2023/09/19 11:41:40;;;;;;;3.10;1.35;;;;;;;34.82;24.89;99024.66;5076667;28;20192;-87
2023/09/19 11:44:12;;;;;;;10.55;1.90;;;;;;;34.95;24.21;99017.03;5077330;28;20197;-87
2023/09/19 11:46:58;;;;;;;3.45;1.30;;;;;;;35.18;25.18;99002.56;5077095;28;20242;-87
2023/09/19 11:49:33;;;;;;;4.10;1.17;;;;;;;35.48;24.37;99008.63;5076390;28;20218;-88
2023/09/19 11:52:05;;;;;;;2.97;1.30;;;;;;;35.29;24.79;99001.69;5059605;28;20219;-87
2023/09/19 11:54:32;;;;;;;2.00;0.90;;;;;;;35.24;24.17;98998.03;5058943;28;20204;-88
2023/09/19 11:57:00;;;;;;;3.58;1.55;;;;;;;35.41;24.41;98991.56;5076505;28;20246;-88